sensor_id;sensor_type;location;lat;lon;timestamp;P1;durP1;ratioP1;P2;durP2;ratioP2
7833;SDS011;3962;42.696;23.354;2023-04-16T00:02:15;16.77;;;8.50;;
7833;SDS011;3962;42.696;23.354;2023-04-16T00:04:42;13.17;;;7.60;;
7833;SDS011;3962;42.696;23.354;2023-04-16T00:07:10;10.93;;;6.97;;
7833;SDS011;3962;42.696;23.354;2023-04-16T00:09:37;13.30;;;7.50;;
7833;SDS011;3962;42.696;23.354;2023-04-16T00:12:04;12.17;;;6.63;;
7833;SDS011;3962;42.696;23.354;2023-04-16T00:14:31;9.80;;;5.70;;
7833;SDS011;3962;42.696;23.354;2023-04-16T00:16:58;10.50;;;5.20;;
7833;SDS011;3962;42.696;23.354;2023-04-16T00:19:25;9.67;;;5.50;;
7833;SDS011;3962;42.696;23.354;2023-04-16T00:21:52;8.90;;;5.93;;
7833;SDS011;3962;42.696;23.354;2023-04-16T00:24:20;10.63;;;5.67;;
7833;SDS011;3962;42.696;23.354;2023-04-16T00:26:47;11.97;;;5.60;;
7833;SDS011;3962;42.696;23.354;2023-04-16T00:29:13;14.73;;;6.57;;
7833;SDS011;3962;42.696;23.354;2023-04-16T00:31:40;13.20;;;6.17;;
7833;SDS011;3962;42.696;23.354;2023-04-16T00:34:07;10.17;;;6.47;;
7833;SDS011;3962;42.696;23.354;2023-04-16T00:36:34;12.07;;;6.60;;
7833;SDS011;3962;42.696;23.354;2023-04-16T00:39:01;11.93;;;5.80;;
7833;SDS011;3962;42.696;23.354;2023-04-16T00:41:29;9.83;;;5.07;;
7833;SDS011;3962;42.696;23.354;2023-04-16T00:43:56;10.03;;;6.33;;
7833;SDS011;3962;42.696;23.354;2023-04-16T00:46:23;9.87;;;5.67;;
7833;SDS011;3962;42.696;23.354;2023-04-16T00:48:50;10.60;;;6.50;;
7833;SDS011;3962;42.696;23.354;2023-04-16T00:51:19;18.90;;;9.97;;
7833;SDS011;3962;42.696;23.354;2023-04-16T00:53:46;22.17;;;11.47;;
7833;SDS011;3962;42.696;23.354;2023-04-16T00:56:14;16.33;;;9.93;;
7833;SDS011;3962;42.696;23.354;2023-04-16T00:58:42;12.37;;;8.87;;
7833;SDS011;3962;42.696;23.354;2023-04-16T01:01:09;14.27;;;8.57;;
7833;SDS011;3962;42.696;23.354;2023-04-16T01:03:36;11.87;;;7.00;;
7833;SDS011;3962;42.696;23.354;2023-04-16T01:06:05;14.60;;;6.93;;
7833;SDS011;3962;42.696;23.354;2023-04-16T01:08:32;13.23;;;7.40;;
7833;SDS011;3962;42.696;23.354;2023-04-16T01:10:59;11.37;;;6.60;;
7833;SDS011;3962;42.696;23.354;2023-04-16T01:13:26;10.10;;;6.47;;
7833;SDS011;3962;42.696;23.354;2023-04-16T01:15:54;16.40;;;6.87;;
7833;SDS011;3962;42.696;23.354;2023-04-16T01:18:21;9.47;;;5.97;;
7833;SDS011;3962;42.696;23.354;2023-04-16T01:20:50;12.30;;;6.43;;
7833;SDS011;3962;42.696;23.354;2023-04-16T01:23:17;10.13;;;5.70;;
7833;SDS011;3962;42.696;23.354;2023-04-16T01:25:44;10.10;;;5.77;;
7833;SDS011;3962;42.696;23.354;2023-04-16T01:28:11;10.13;;;5.60;;
7833;SDS011;3962;42.696;23.354;2023-04-16T01:30:38;9.63;;;5.47;;
7833;SDS011;3962;42.696;23.354;2023-04-16T01:33:05;9.27;;;5.40;;
7833;SDS011;3962;42.696;23.354;2023-04-16T01:35:33;9.73;;;6.27;;
7833;SDS011;3962;42.696;23.354;2023-04-16T01:38:01;12.23;;;5.70;;
7833;SDS011;3962;42.696;23.354;2023-04-16T01:40:28;12.00;;;5.37;;
7833;SDS011;3962;42.696;23.354;2023-04-16T01:42:55;14.60;;;5.77;;
7833;SDS011;3962;42.696;23.354;2023-04-16T01:45:22;18.63;;;5.70;;
7833;SDS011;3962;42.696;23.354;2023-04-16T01:47:49;8.90;;;5.60;;
7833;SDS011;3962;42.696;23.354;2023-04-16T01:50:16;7.30;;;4.50;;
7833;SDS011;3962;42.696;23.354;2023-04-16T01:52:43;9.73;;;4.50;;
7833;SDS011;3962;42.696;23.354;2023-04-16T01:55:11;11.00;;;5.23;;
7833;SDS011;3962;42.696;23.354;2023-04-16T01:57:38;10.47;;;5.10;;
7833;SDS011;3962;42.696;23.354;2023-04-16T02:00:06;13.17;;;5.27;;
7833;SDS011;3962;42.696;23.354;2023-04-16T02:02:33;8.27;;;5.50;;
7833;SDS011;3962;42.696;23.354;2023-04-16T02:05:00;11.87;;;5.67;;
7833;SDS011;3962;42.696;23.354;2023-04-16T02:07:27;12.20;;;6.70;;
7833;SDS011;3962;42.696;23.354;2023-04-16T02:09:55;15.40;;;6.83;;
7833;SDS011;3962;42.696;23.354;2023-04-16T02:12:24;14.13;;;7.00;;
7833;SDS011;3962;42.696;23.354;2023-04-16T02:14:51;14.77;;;6.97;;
7833;SDS011;3962;42.696;23.354;2023-04-16T02:17:18;18.13;;;8.03;;
7833;SDS011;3962;42.696;23.354;2023-04-16T02:19:45;16.57;;;7.67;;
7833;SDS011;3962;42.696;23.354;2023-04-16T02:22:12;16.17;;;8.27;;
7833;SDS011;3962;42.696;23.354;2023-04-16T02:24:39;14.10;;;8.43;;
7833;SDS011;3962;42.696;23.354;2023-04-16T02:27:06;18.83;;;8.73;;
7833;SDS011;3962;42.696;23.354;2023-04-16T02:29:34;15.80;;;9.23;;
7833;SDS011;3962;42.696;23.354;2023-04-16T02:32:01;17.63;;;9.70;;
7833;SDS011;3962;42.696;23.354;2023-04-16T02:34:28;20.70;;;10.70;;
7833;SDS011;3962;42.696;23.354;2023-04-16T02:36:55;14.47;;;9.73;;
7833;SDS011;3962;42.696;23.354;2023-04-16T02:39:22;21.50;;;12.23;;
7833;SDS011;3962;42.696;23.354;2023-04-16T02:41:49;25.73;;;12.13;;
7833;SDS011;3962;42.696;23.354;2023-04-16T02:44:16;22.43;;;12.27;;
7833;SDS011;3962;42.696;23.354;2023-04-16T02:46:44;21.63;;;13.37;;
7833;SDS011;3962;42.696;23.354;2023-04-16T02:49:11;20.47;;;11.23;;
7833;SDS011;3962;42.696;23.354;2023-04-16T02:51:38;20.90;;;10.97;;
7833;SDS011;3962;42.696;23.354;2023-04-16T02:54:05;22.40;;;11.47;;
7833;SDS011;3962;42.696;23.354;2023-04-16T02:56:31;18.63;;;11.00;;
7833;SDS011;3962;42.696;23.354;2023-04-16T02:58:58;21.23;;;10.40;;
7833;SDS011;3962;42.696;23.354;2023-04-16T03:01:25;18.27;;;11.03;;
7833;SDS011;3962;42.696;23.354;2023-04-16T03:03:53;19.57;;;10.67;;
7833;SDS011;3962;42.696;23.354;2023-04-16T03:06:20;18.50;;;10.47;;
7833;SDS011;3962;42.696;23.354;2023-04-16T03:08:47;20.97;;;10.00;;
7833;SDS011;3962;42.696;23.354;2023-04-16T03:11:14;14.40;;;9.13;;
7833;SDS011;3962;42.696;23.354;2023-04-16T03:13:41;19.23;;;10.27;;
7833;SDS011;3962;42.696;23.354;2023-04-16T03:16:08;16.00;;;10.33;;
7833;SDS011;3962;42.696;23.354;2023-04-16T03:18:34;13.47;;;9.30;;
7833;SDS011;3962;42.696;23.354;2023-04-16T03:21:03;15.77;;;8.67;;
7833;SDS011;3962;42.696;23.354;2023-04-16T03:23:30;19.40;;;9.30;;
7833;SDS011;3962;42.696;23.354;2023-04-16T03:25:57;16.67;;;8.60;;
7833;SDS011;3962;42.696;23.354;2023-04-16T03:28:24;13.17;;;7.87;;
7833;SDS011;3962;42.696;23.354;2023-04-16T03:30:51;15.67;;;7.77;;
7833;SDS011;3962;42.696;23.354;2023-04-16T03:33:18;13.00;;;7.40;;
7833;SDS011;3962;42.696;23.354;2023-04-16T03:35:45;13.53;;;7.30;;
7833;SDS011;3962;42.696;23.354;2023-04-16T03:38:14;11.40;;;7.43;;
7833;SDS011;3962;42.696;23.354;2023-04-16T03:40:40;13.47;;;8.30;;
7833;SDS011;3962;42.696;23.354;2023-04-16T03:43:07;14.40;;;7.67;;
7833;SDS011;3962;42.696;23.354;2023-04-16T03:45:34;13.13;;;7.40;;
7833;SDS011;3962;42.696;23.354;2023-04-16T03:48:01;13.73;;;6.90;;
7833;SDS011;3962;42.696;23.354;2023-04-16T03:50:27;14.77;;;7.50;;
7833;SDS011;3962;42.696;23.354;2023-04-16T03:52:54;12.90;;;6.70;;
7833;SDS011;3962;42.696;23.354;2023-04-16T03:55:22;9.20;;;5.87;;
7833;SDS011;3962;42.696;23.354;2023-04-16T03:57:49;15.20;;;6.97;;
7833;SDS011;3962;42.696;23.354;2023-04-16T04:00:16;15.17;;;7.40;;
7833;SDS011;3962;42.696;23.354;2023-04-16T04:02:43;13.67;;;7.60;;
7833;SDS011;3962;42.696;23.354;2023-04-16T04:05:09;11.67;;;6.93;;
7833;SDS011;3962;42.696;23.354;2023-04-16T04:07:36;14.47;;;7.60;;
7833;SDS011;3962;42.696;23.354;2023-04-16T04:10:03;12.43;;;7.00;;
7833;SDS011;3962;42.696;23.354;2023-04-16T04:12:32;9.87;;;6.90;;
7833;SDS011;3962;42.696;23.354;2023-04-16T04:14:59;10.30;;;6.30;;
7833;SDS011;3962;42.696;23.354;2023-04-16T04:17:25;9.67;;;6.23;;
7833;SDS011;3962;42.696;23.354;2023-04-16T04:19:52;10.67;;;5.77;;
7833;SDS011;3962;42.696;23.354;2023-04-16T04:22:19;9.73;;;5.70;;
7833;SDS011;3962;42.696;23.354;2023-04-16T04:24:46;8.50;;;5.33;;
7833;SDS011;3962;42.696;23.354;2023-04-16T04:27:13;7.27;;;5.03;;
7833;SDS011;3962;42.696;23.354;2023-04-16T04:29:41;6.80;;;4.73;;
7833;SDS011;3962;42.696;23.354;2023-04-16T04:32:07;8.17;;;5.37;;
7833;SDS011;3962;42.696;23.354;2023-04-16T04:34:34;12.20;;;5.37;;
7833;SDS011;3962;42.696;23.354;2023-04-16T04:37:01;10.23;;;5.33;;
7833;SDS011;3962;42.696;23.354;2023-04-16T04:39:28;12.80;;;5.30;;
7833;SDS011;3962;42.696;23.354;2023-04-16T04:41:56;12.17;;;5.00;;
7833;SDS011;3962;42.696;23.354;2023-04-16T04:44:22;12.00;;;5.50;;
7833;SDS011;3962;42.696;23.354;2023-04-16T04:46:51;10.57;;;5.30;;
7833;SDS011;3962;42.696;23.354;2023-04-16T04:49:18;10.30;;;5.20;;
7833;SDS011;3962;42.696;23.354;2023-04-16T04:51:45;9.77;;;5.80;;
7833;SDS011;3962;42.696;23.354;2023-04-16T04:54:12;9.90;;;5.77;;
7833;SDS011;3962;42.696;23.354;2023-04-16T04:56:39;9.07;;;5.10;;
7833;SDS011;3962;42.696;23.354;2023-04-16T04:59:05;10.97;;;5.23;;
7833;SDS011;3962;42.696;23.354;2023-04-16T05:01:32;9.53;;;5.60;;
7833;SDS011;3962;42.696;23.354;2023-04-16T05:04:00;11.50;;;5.83;;
7833;SDS011;3962;42.696;23.354;2023-04-16T05:06:27;11.10;;;5.30;;
7833;SDS011;3962;42.696;23.354;2023-04-16T05:08:54;7.90;;;4.93;;
7833;SDS011;3962;42.696;23.354;2023-04-16T05:11:21;11.70;;;6.27;;
7833;SDS011;3962;42.696;23.354;2023-04-16T05:13:48;10.40;;;5.90;;
7833;SDS011;3962;42.696;23.354;2023-04-16T05:16:14;10.57;;;6.43;;
7833;SDS011;3962;42.696;23.354;2023-04-16T05:18:41;13.43;;;6.87;;
7833;SDS011;3962;42.696;23.354;2023-04-16T05:21:09;12.17;;;7.40;;
7833;SDS011;3962;42.696;23.354;2023-04-16T05:23:36;11.37;;;6.17;;
7833;SDS011;3962;42.696;23.354;2023-04-16T05:26:03;14.90;;;6.27;;
7833;SDS011;3962;42.696;23.354;2023-04-16T05:28:30;8.37;;;5.50;;
7833;SDS011;3962;42.696;23.354;2023-04-16T05:30:56;10.03;;;5.37;;
7833;SDS011;3962;42.696;23.354;2023-04-16T05:33:23;9.77;;;5.97;;
7833;SDS011;3962;42.696;23.354;2023-04-16T05:35:50;13.23;;;6.07;;
7833;SDS011;3962;42.696;23.354;2023-04-16T05:38:18;10.47;;;5.70;;
7833;SDS011;3962;42.696;23.354;2023-04-16T05:40:45;10.17;;;6.00;;
7833;SDS011;3962;42.696;23.354;2023-04-16T05:43:12;12.07;;;6.60;;
7833;SDS011;3962;42.696;23.354;2023-04-16T05:45:38;14.93;;;7.03;;
7833;SDS011;3962;42.696;23.354;2023-04-16T05:48:05;17.00;;;7.07;;
7833;SDS011;3962;42.696;23.354;2023-04-16T05:50:33;15.17;;;6.53;;
7833;SDS011;3962;42.696;23.354;2023-04-16T05:53:00;15.43;;;7.13;;
7833;SDS011;3962;42.696;23.354;2023-04-16T05:55:29;12.83;;;6.57;;
7833;SDS011;3962;42.696;23.354;2023-04-16T05:57:56;12.53;;;6.07;;
7833;SDS011;3962;42.696;23.354;2023-04-16T06:00:23;13.03;;;5.90;;
7833;SDS011;3962;42.696;23.354;2023-04-16T06:02:49;11.10;;;6.10;;
7833;SDS011;3962;42.696;23.354;2023-04-16T06:05:16;12.43;;;6.20;;
7833;SDS011;3962;42.696;23.354;2023-04-16T06:07:43;11.20;;;5.90;;
7833;SDS011;3962;42.696;23.354;2023-04-16T06:10:10;13.67;;;6.37;;
7833;SDS011;3962;42.696;23.354;2023-04-16T06:12:38;21.47;;;6.90;;
7833;SDS011;3962;42.696;23.354;2023-04-16T06:15:06;12.00;;;7.50;;
7833;SDS011;3962;42.696;23.354;2023-04-16T06:17:33;23.80;;;13.17;;
7833;SDS011;3962;42.696;23.354;2023-04-16T06:20:00;12.00;;;6.80;;
7833;SDS011;3962;42.696;23.354;2023-04-16T06:22:27;12.37;;;7.03;;
7833;SDS011;3962;42.696;23.354;2023-04-16T06:24:54;11.23;;;7.20;;
7833;SDS011;3962;42.696;23.354;2023-04-16T06:27:21;13.40;;;6.27;;
7833;SDS011;3962;42.696;23.354;2023-04-16T06:29:49;14.90;;;7.37;;
7833;SDS011;3962;42.696;23.354;2023-04-16T06:32:16;12.30;;;7.47;;
7833;SDS011;3962;42.696;23.354;2023-04-16T06:34:43;19.83;;;8.83;;
7833;SDS011;3962;42.696;23.354;2023-04-16T06:37:09;19.60;;;9.70;;
7833;SDS011;3962;42.696;23.354;2023-04-16T06:39:36;14.33;;;9.00;;
7833;SDS011;3962;42.696;23.354;2023-04-16T06:42:03;21.57;;;11.40;;
7833;SDS011;3962;42.696;23.354;2023-04-16T06:44:30;20.13;;;10.57;;
7833;SDS011;3962;42.696;23.354;2023-04-16T06:46:58;15.90;;;8.70;;
7833;SDS011;3962;42.696;23.354;2023-04-16T06:49:25;15.87;;;5.50;;
7833;SDS011;3962;42.696;23.354;2023-04-16T06:51:52;12.67;;;6.23;;
7833;SDS011;3962;42.696;23.354;2023-04-16T06:54:19;8.40;;;3.87;;
7833;SDS011;3962;42.696;23.354;2023-04-16T06:56:46;9.47;;;4.23;;
7833;SDS011;3962;42.696;23.354;2023-04-16T06:59:12;8.20;;;4.17;;
7833;SDS011;3962;42.696;23.354;2023-04-16T07:01:39;9.40;;;4.83;;
7833;SDS011;3962;42.696;23.354;2023-04-16T07:04:07;6.63;;;3.90;;
7833;SDS011;3962;42.696;23.354;2023-04-16T07:06:35;5.93;;;3.83;;
7833;SDS011;3962;42.696;23.354;2023-04-16T07:09:02;9.57;;;4.17;;
7833;SDS011;3962;42.696;23.354;2023-04-16T07:11:28;4.40;;;3.40;;
7833;SDS011;3962;42.696;23.354;2023-04-16T07:13:55;5.47;;;3.20;;
7833;SDS011;3962;42.696;23.354;2023-04-16T07:16:23;6.67;;;3.43;;
7833;SDS011;3962;42.696;23.354;2023-04-16T07:18:50;7.10;;;4.33;;
7833;SDS011;3962;42.696;23.354;2023-04-16T07:21:18;8.30;;;3.83;;
7833;SDS011;3962;42.696;23.354;2023-04-16T07:23:45;11.37;;;3.77;;
7833;SDS011;3962;42.696;23.354;2023-04-16T07:26:11;9.00;;;4.97;;
7833;SDS011;3962;42.696;23.354;2023-04-16T07:28:38;9.32;;;4.07;;
7833;SDS011;3962;42.696;23.354;2023-04-16T07:31:05;7.97;;;3.83;;
7833;SDS011;3962;42.696;23.354;2023-04-16T07:33:32;6.63;;;3.70;;
7833;SDS011;3962;42.696;23.354;2023-04-16T07:35:59;8.73;;;4.00;;
7833;SDS011;3962;42.696;23.354;2023-04-16T07:38:27;5.77;;;4.00;;
7833;SDS011;3962;42.696;23.354;2023-04-16T07:40:54;8.67;;;4.63;;
7833;SDS011;3962;42.696;23.354;2023-04-16T07:43:21;10.10;;;4.30;;
7833;SDS011;3962;42.696;23.354;2023-04-16T07:45:48;5.97;;;4.00;;
7833;SDS011;3962;42.696;23.354;2023-04-16T07:48:15;9.13;;;4.33;;
7833;SDS011;3962;42.696;23.354;2023-04-16T07:50:41;6.20;;;4.33;;
7833;SDS011;3962;42.696;23.354;2023-04-16T07:53:08;9.67;;;5.27;;
7833;SDS011;3962;42.696;23.354;2023-04-16T07:55:37;9.97;;;5.40;;
7833;SDS011;3962;42.696;23.354;2023-04-16T07:58:04;13.57;;;6.03;;
7833;SDS011;3962;42.696;23.354;2023-04-16T08:00:33;9.97;;;5.33;;
7833;SDS011;3962;42.696;23.354;2023-04-16T08:03:00;9.97;;;5.70;;
7833;SDS011;3962;42.696;23.354;2023-04-16T08:05:27;8.23;;;4.27;;
7833;SDS011;3962;42.696;23.354;2023-04-16T08:07:53;11.37;;;4.67;;
7833;SDS011;3962;42.696;23.354;2023-04-16T08:10:20;8.10;;;4.10;;
7833;SDS011;3962;42.696;23.354;2023-04-16T08:12:49;8.40;;;4.77;;
7833;SDS011;3962;42.696;23.354;2023-04-16T08:15:15;11.83;;;4.17;;
7833;SDS011;3962;42.696;23.354;2023-04-16T08:17:43;9.27;;;4.63;;
7833;SDS011;3962;42.696;23.354;2023-04-16T08:20:10;8.70;;;5.60;;
7833;SDS011;3962;42.696;23.354;2023-04-16T08:22:36;11.60;;;4.27;;
7833;SDS011;3962;42.696;23.354;2023-04-16T08:25:03;10.33;;;3.40;;
7833;SDS011;3962;42.696;23.354;2023-04-16T08:27:31;6.93;;;3.53;;
7833;SDS011;3962;42.696;23.354;2023-04-16T08:29:59;7.13;;;3.77;;
7833;SDS011;3962;42.696;23.354;2023-04-16T08:32:26;5.30;;;3.27;;
7833;SDS011;3962;42.696;23.354;2023-04-16T08:34:52;9.63;;;3.33;;
7833;SDS011;3962;42.696;23.354;2023-04-16T08:37:19;6.33;;;3.73;;
7833;SDS011;3962;42.696;23.354;2023-04-16T08:39:46;6.30;;;2.87;;
7833;SDS011;3962;42.696;23.354;2023-04-16T08:42:17;5.90;;;3.30;;
7833;SDS011;3962;42.696;23.354;2023-04-16T08:44:47;5.30;;;3.40;;
7833;SDS011;3962;42.696;23.354;2023-04-16T08:47:15;7.13;;;3.13;;
7833;SDS011;3962;42.696;23.354;2023-04-16T08:49:43;4.20;;;2.83;;
7833;SDS011;3962;42.696;23.354;2023-04-16T08:52:12;5.47;;;3.20;;
7833;SDS011;3962;42.696;23.354;2023-04-16T08:54:42;5.37;;;2.90;;
7833;SDS011;3962;42.696;23.354;2023-04-16T08:57:17;4.17;;;2.60;;
7833;SDS011;3962;42.696;23.354;2023-04-16T08:59:45;5.73;;;3.17;;
7833;SDS011;3962;42.696;23.354;2023-04-16T09:02:13;6.37;;;2.60;;
7833;SDS011;3962;42.696;23.354;2023-04-16T09:04:42;6.87;;;2.90;;
7833;SDS011;3962;42.696;23.354;2023-04-16T09:07:10;5.60;;;2.73;;
7833;SDS011;3962;42.696;23.354;2023-04-16T09:09:37;5.27;;;2.80;;
7833;SDS011;3962;42.696;23.354;2023-04-16T09:12:05;6.53;;;2.93;;
7833;SDS011;3962;42.696;23.354;2023-04-16T09:14:34;4.00;;;2.60;;
7833;SDS011;3962;42.696;23.354;2023-04-16T09:17:02;4.70;;;2.73;;
7833;SDS011;3962;42.696;23.354;2023-04-16T09:19:31;7.03;;;2.95;;
7833;SDS011;3962;42.696;23.354;2023-04-16T09:21:59;4.80;;;2.87;;
7833;SDS011;3962;42.696;23.354;2023-04-16T09:24:27;5.33;;;2.43;;
7833;SDS011;3962;42.696;23.354;2023-04-16T09:26:54;6.63;;;2.50;;
7833;SDS011;3962;42.696;23.354;2023-04-16T09:29:34;5.17;;;2.40;;
7833;SDS011;3962;42.696;23.354;2023-04-16T09:32:01;5.40;;;2.50;;
7833;SDS011;3962;42.696;23.354;2023-04-16T09:34:30;7.13;;;2.57;;
7833;SDS011;3962;42.696;23.354;2023-04-16T09:39:54;3.53;;;2.40;;
7833;SDS011;3962;42.696;23.354;2023-04-16T09:42:24;6.27;;;2.50;;
7833;SDS011;3962;42.696;23.354;2023-04-16T09:44:53;3.87;;;2.63;;
7833;SDS011;3962;42.696;23.354;2023-04-16T09:47:20;5.57;;;2.40;;
7833;SDS011;3962;42.696;23.354;2023-04-16T09:49:48;5.13;;;2.63;;
7833;SDS011;3962;42.696;23.354;2023-04-16T09:52:16;5.13;;;2.70;;
7833;SDS011;3962;42.696;23.354;2023-04-16T09:54:47;7.90;;;2.53;;
7833;SDS011;3962;42.696;23.354;2023-04-16T09:57:18;5.50;;;2.40;;
7833;SDS011;3962;42.696;23.354;2023-04-16T09:59:46;6.30;;;2.50;;
7833;SDS011;3962;42.696;23.354;2023-04-16T10:02:14;4.60;;;2.50;;
7833;SDS011;3962;42.696;23.354;2023-04-16T10:04:44;5.10;;;3.00;;
7833;SDS011;3962;42.696;23.354;2023-04-16T10:07:12;3.90;;;2.87;;
7833;SDS011;3962;42.696;23.354;2023-04-16T10:09:38;3.37;;;2.33;;
7833;SDS011;3962;42.696;23.354;2023-04-16T10:12:06;5.80;;;2.83;;
7833;SDS011;3962;42.696;23.354;2023-04-16T10:14:34;6.23;;;2.50;;
7833;SDS011;3962;42.696;23.354;2023-04-16T10:17:02;5.03;;;2.87;;
7833;SDS011;3962;42.696;23.354;2023-04-16T10:19:30;4.53;;;3.00;;
7833;SDS011;3962;42.696;23.354;2023-04-16T10:21:58;7.03;;;3.20;;
7833;SDS011;3962;42.696;23.354;2023-04-16T10:24:25;7.03;;;2.43;;
7833;SDS011;3962;42.696;23.354;2023-04-16T10:26:52;4.40;;;2.33;;
7833;SDS011;3962;42.696;23.354;2023-04-16T10:29:20;7.90;;;2.67;;
7833;SDS011;3962;42.696;23.354;2023-04-16T10:31:49;3.23;;;2.20;;
7833;SDS011;3962;42.696;23.354;2023-04-16T10:34:19;2.90;;;2.27;;
7833;SDS011;3962;42.696;23.354;2023-04-16T10:36:47;6.10;;;2.97;;
7833;SDS011;3962;42.696;23.354;2023-04-16T10:39:16;3.40;;;2.00;;
7833;SDS011;3962;42.696;23.354;2023-04-16T10:41:45;3.50;;;1.90;;
7833;SDS011;3962;42.696;23.354;2023-04-16T10:44:12;7.90;;;2.57;;
7833;SDS011;3962;42.696;23.354;2023-04-16T10:46:42;5.03;;;2.07;;
7833;SDS011;3962;42.696;23.354;2023-04-16T10:49:15;5.30;;;2.50;;
7833;SDS011;3962;42.696;23.354;2023-04-16T10:51:51;4.27;;;2.07;;
7833;SDS011;3962;42.696;23.354;2023-04-16T10:54:21;4.67;;;2.07;;
7833;SDS011;3962;42.696;23.354;2023-04-16T10:56:50;4.60;;;2.20;;
7833;SDS011;3962;42.696;23.354;2023-04-16T10:59:18;3.87;;;2.70;;
7833;SDS011;3962;42.696;23.354;2023-04-16T11:01:47;4.53;;;2.23;;
7833;SDS011;3962;42.696;23.354;2023-04-16T11:04:33;5.47;;;2.23;;
7833;SDS011;3962;42.696;23.354;2023-04-16T11:07:02;4.50;;;2.40;;
7833;SDS011;3962;42.696;23.354;2023-04-16T11:09:43;5.53;;;2.40;;
7833;SDS011;3962;42.696;23.354;2023-04-16T11:12:17;3.60;;;2.10;;
7833;SDS011;3962;42.696;23.354;2023-04-16T11:14:46;4.00;;;2.50;;
7833;SDS011;3962;42.696;23.354;2023-04-16T11:17:13;4.80;;;2.47;;
7833;SDS011;3962;42.696;23.354;2023-04-16T11:19:42;6.87;;;2.30;;
7833;SDS011;3962;42.696;23.354;2023-04-16T11:22:11;4.97;;;2.10;;
7833;SDS011;3962;42.696;23.354;2023-04-16T11:24:39;3.90;;;2.03;;
7833;SDS011;3962;42.696;23.354;2023-04-16T11:27:06;6.87;;;2.23;;
7833;SDS011;3962;42.696;23.354;2023-04-16T11:29:33;5.47;;;2.17;;
7833;SDS011;3962;42.696;23.354;2023-04-16T11:32:00;6.13;;;2.33;;
7833;SDS011;3962;42.696;23.354;2023-04-16T11:34:27;4.83;;;2.00;;
7833;SDS011;3962;42.696;23.354;2023-04-16T11:36:55;4.23;;;2.10;;
7833;SDS011;3962;42.696;23.354;2023-04-16T11:39:22;4.50;;;2.17;;
7833;SDS011;3962;42.696;23.354;2023-04-16T11:41:50;5.20;;;2.40;;
7833;SDS011;3962;42.696;23.354;2023-04-16T11:44:21;5.03;;;2.70;;
7833;SDS011;3962;42.696;23.354;2023-04-16T11:46:49;4.07;;;2.03;;
7833;SDS011;3962;42.696;23.354;2023-04-16T11:49:17;2.77;;;1.90;;
7833;SDS011;3962;42.696;23.354;2023-04-16T11:51:53;2.53;;;1.83;;
7833;SDS011;3962;42.696;23.354;2023-04-16T11:54:22;3.87;;;2.00;;
7833;SDS011;3962;42.696;23.354;2023-04-16T11:56:50;5.00;;;2.20;;
7833;SDS011;3962;42.696;23.354;2023-04-16T11:59:19;5.53;;;2.10;;
7833;SDS011;3962;42.696;23.354;2023-04-16T12:01:47;4.37;;;1.80;;
7833;SDS011;3962;42.696;23.354;2023-04-16T12:04:16;6.00;;;1.90;;
7833;SDS011;3962;42.696;23.354;2023-04-16T12:09:32;3.80;;;1.77;;
7833;SDS011;3962;42.696;23.354;2023-04-16T12:12:00;5.07;;;2.10;;
7833;SDS011;3962;42.696;23.354;2023-04-16T12:14:27;4.70;;;2.40;;
7833;SDS011;3962;42.696;23.354;2023-04-16T12:16:54;3.00;;;2.03;;
7833;SDS011;3962;42.696;23.354;2023-04-16T12:19:21;6.30;;;2.50;;
7833;SDS011;3962;42.696;23.354;2023-04-16T12:21:48;5.03;;;2.17;;
7833;SDS011;3962;42.696;23.354;2023-04-16T12:24:16;4.57;;;2.10;;
7833;SDS011;3962;42.696;23.354;2023-04-16T12:26:52;7.43;;;2.00;;
7833;SDS011;3962;42.696;23.354;2023-04-16T12:29:22;3.10;;;1.93;;
7833;SDS011;3962;42.696;23.354;2023-04-16T12:31:51;4.53;;;1.80;;
7833;SDS011;3962;42.696;23.354;2023-04-16T12:34:19;3.73;;;2.10;;
7833;SDS011;3962;42.696;23.354;2023-04-16T12:36:47;5.10;;;2.07;;
7833;SDS011;3962;42.696;23.354;2023-04-16T12:39:16;4.37;;;2.07;;
7833;SDS011;3962;42.696;23.354;2023-04-16T12:41:43;5.30;;;2.30;;
7833;SDS011;3962;42.696;23.354;2023-04-16T12:44:14;3.37;;;2.07;;
7833;SDS011;3962;42.696;23.354;2023-04-16T12:46:42;7.90;;;2.83;;
7833;SDS011;3962;42.696;23.354;2023-04-16T12:49:10;4.37;;;2.20;;
7833;SDS011;3962;42.696;23.354;2023-04-16T12:51:37;4.17;;;2.20;;
7833;SDS011;3962;42.696;23.354;2023-04-16T12:54:05;2.87;;;1.70;;
7833;SDS011;3962;42.696;23.354;2023-04-16T12:56:32;3.97;;;2.03;;
7833;SDS011;3962;42.696;23.354;2023-04-16T12:59:00;3.60;;;2.17;;
7833;SDS011;3962;42.696;23.354;2023-04-16T13:01:28;5.60;;;2.03;;
7833;SDS011;3962;42.696;23.354;2023-04-16T13:03:55;7.40;;;2.23;;
7833;SDS011;3962;42.696;23.354;2023-04-16T13:06:22;6.83;;;2.07;;
7833;SDS011;3962;42.696;23.354;2023-04-16T13:08:50;2.20;;;2.00;;
7833;SDS011;3962;42.696;23.354;2023-04-16T13:11:17;6.03;;;2.13;;
7833;SDS011;3962;42.696;23.354;2023-04-16T13:13:44;2.23;;;1.70;;
7833;SDS011;3962;42.696;23.354;2023-04-16T13:16:11;5.00;;;2.10;;
7833;SDS011;3962;42.696;23.354;2023-04-16T13:18:39;6.07;;;2.17;;
7833;SDS011;3962;42.696;23.354;2023-04-16T13:21:08;3.03;;;2.27;;
7833;SDS011;3962;42.696;23.354;2023-04-16T13:23:38;6.13;;;2.73;;
7833;SDS011;3962;42.696;23.354;2023-04-16T13:26:05;7.17;;;3.77;;
7833;SDS011;3962;42.696;23.354;2023-04-16T13:28:32;7.57;;;3.40;;
7833;SDS011;3962;42.696;23.354;2023-04-16T13:30:59;7.60;;;3.50;;
7833;SDS011;3962;42.696;23.354;2023-04-16T13:33:26;4.50;;;2.97;;
7833;SDS011;3962;42.696;23.354;2023-04-16T13:35:54;5.67;;;2.90;;
7833;SDS011;3962;42.696;23.354;2023-04-16T13:38:21;4.23;;;2.00;;
7833;SDS011;3962;42.696;23.354;2023-04-16T13:40:48;6.93;;;2.33;;
7833;SDS011;3962;42.696;23.354;2023-04-16T13:43:15;7.00;;;2.50;;
7833;SDS011;3962;42.696;23.354;2023-04-16T13:45:43;5.47;;;2.60;;
7833;SDS011;3962;42.696;23.354;2023-04-16T13:48:10;6.87;;;2.63;;
7833;SDS011;3962;42.696;23.354;2023-04-16T13:50:37;4.77;;;2.87;;
7833;SDS011;3962;42.696;23.354;2023-04-16T13:53:05;4.70;;;2.10;;
7833;SDS011;3962;42.696;23.354;2023-04-16T13:55:32;4.03;;;2.47;;
7833;SDS011;3962;42.696;23.354;2023-04-16T13:57:59;5.50;;;2.40;;
7833;SDS011;3962;42.696;23.354;2023-04-16T14:00:25;4.90;;;2.60;;
7833;SDS011;3962;42.696;23.354;2023-04-16T14:02:52;5.93;;;2.90;;
7833;SDS011;3962;42.696;23.354;2023-04-16T14:05:19;4.20;;;2.30;;
7833;SDS011;3962;42.696;23.354;2023-04-16T14:07:47;5.23;;;2.13;;
7833;SDS011;3962;42.696;23.354;2023-04-16T14:10:15;7.13;;;3.17;;
7833;SDS011;3962;42.696;23.354;2023-04-16T14:12:42;7.27;;;2.70;;
7833;SDS011;3962;42.696;23.354;2023-04-16T14:15:10;8.53;;;2.80;;
7833;SDS011;3962;42.696;23.354;2023-04-16T14:17:38;5.57;;;3.00;;
7833;SDS011;3962;42.696;23.354;2023-04-16T14:20:07;5.73;;;3.40;;
7833;SDS011;3962;42.696;23.354;2023-04-16T14:22:34;5.27;;;2.80;;
7833;SDS011;3962;42.696;23.354;2023-04-16T14:25:01;6.70;;;3.07;;
7833;SDS011;3962;42.696;23.354;2023-04-16T14:27:29;5.40;;;3.10;;
7833;SDS011;3962;42.696;23.354;2023-04-16T14:29:56;5.37;;;2.80;;
7833;SDS011;3962;42.696;23.354;2023-04-16T14:32:24;4.50;;;2.40;;
7833;SDS011;3962;42.696;23.354;2023-04-16T14:34:51;3.77;;;2.87;;
7833;SDS011;3962;42.696;23.354;2023-04-16T14:37:18;4.30;;;2.57;;
7833;SDS011;3962;42.696;23.354;2023-04-16T14:39:45;4.80;;;2.53;;
7833;SDS011;3962;42.696;23.354;2023-04-16T14:42:12;7.73;;;3.27;;
7833;SDS011;3962;42.696;23.354;2023-04-16T14:44:40;8.37;;;2.77;;
7833;SDS011;3962;42.696;23.354;2023-04-16T14:47:07;6.57;;;3.40;;
7833;SDS011;3962;42.696;23.354;2023-04-16T14:49:35;11.53;;;4.00;;
7833;SDS011;3962;42.696;23.354;2023-04-16T14:52:02;8.90;;;3.60;;
7833;SDS011;3962;42.696;23.354;2023-04-16T14:54:30;5.93;;;3.53;;
7833;SDS011;3962;42.696;23.354;2023-04-16T14:56:57;5.67;;;3.33;;
7833;SDS011;3962;42.696;23.354;2023-04-16T14:59:24;5.97;;;3.30;;
7833;SDS011;3962;42.696;23.354;2023-04-16T15:01:53;6.90;;;3.83;;
7833;SDS011;3962;42.696;23.354;2023-04-16T15:04:20;6.23;;;3.60;;